createdAt,value
2018-11-01T17:56:57.170Z,54.68
2018-11-01T17:57:57.617Z,54.78
2018-11-01T18:00:18.663Z,54.68
2018-11-01T18:02:49.354Z,54.49
2018-11-01T18:03:52.006Z,54.71
2018-11-01T18:04:47.777Z,54.80
2018-11-01T18:05:47.637Z,54.71
2018-11-01T18:06:47.932Z,54.71
2018-11-01T18:08:47.838Z,54.52
2018-11-01T18:09:47.415Z,54.52
2018-11-01T18:10:47.405Z,54.61
2018-11-01T18:11:47.404Z,55.00
2018-11-01T18:12:47.402Z,54.71
2018-11-01T18:13:47.372Z,54.90
2018-11-01T18:14:47.379Z,55.29
2018-11-01T18:15:47.372Z,55.19
2018-11-01T18:16:47.358Z,55.19
2018-11-01T18:17:47.338Z,55.19
2018-11-01T18:18:47.358Z,55.09
2018-11-01T18:19:47.312Z,55.09
2018-11-01T18:20:47.333Z,55.19
2018-11-01T18:21:47.297Z,55.19
2018-11-01T18:22:47.283Z,55.38
2018-11-01T18:23:47.291Z,55.09
2018-11-01T18:24:47.342Z,55.09
2018-11-01T18:25:47.452Z,54.90
2018-11-01T18:26:47.275Z,54.90
2018-11-01T18:27:47.238Z,55.12
2018-11-01T18:28:47.305Z,55.09
2018-11-01T18:29:47.236Z,55.22
2018-11-01T18:30:47.209Z,55.22
2018-11-01T18:31:47.255Z,55.12
2018-11-01T18:32:48.313Z,55.22
2018-11-01T18:33:47.205Z,55.31
2018-11-01T18:34:47.383Z,55.31
2018-11-01T18:35:47.194Z,55.12
2018-11-01T18:36:47.180Z,55.22
2018-11-01T18:37:47.202Z,55.60
2018-11-01T18:42:25.832Z,55.79
2018-11-01T18:43:24.484Z,55.70
2018-11-01T18:44:24.475Z,55.60
2018-11-01T18:45:24.391Z,55.60
2018-11-01T18:46:24.326Z,55.70
2018-11-01T18:47:24.328Z,55.51
2018-11-01T18:48:25.234Z,55.41
2018-11-01T18:49:24.642Z,55.22
2018-11-01T18:50:25.532Z,55.60
2018-11-01T18:51:24.730Z,55.79
2018-11-01T18:52:24.254Z,55.89
2018-11-01T18:53:24.369Z,55.89
2018-11-01T18:54:24.711Z,55.89
2018-11-01T18:55:25.924Z,55.60
2018-11-01T18:56:24.407Z,55.70
2018-11-01T18:57:24.528Z,55.70
2018-11-01T18:58:24.554Z,55.60
2018-11-01T18:59:25.456Z,55.70
2018-11-01T19:00:24.790Z,55.41
2018-11-01T19:01:24.251Z,55.99
2018-11-01T19:02:24.248Z,55.41
2018-11-01T19:03:24.189Z,55.99
2018-11-01T19:04:24.204Z,55.41
2018-11-01T19:05:24.140Z,55.99
2018-11-01T19:06:24.155Z,56.09
2018-11-01T19:07:24.131Z,56.18
2018-11-01T19:08:24.208Z,56.18
2018-11-01T19:09:24.104Z,56.09
2018-11-01T19:10:24.140Z,56.09
2018-11-01T19:11:24.085Z,56.18
2018-11-01T19:12:24.107Z,56.27
2018-11-01T19:13:24.134Z,56.18
2018-11-01T19:14:24.116Z,56.18
2018-11-01T19:15:24.050Z,56.09
2018-11-01T19:16:24.070Z,56.18
2018-11-01T19:17:24.287Z,56.09
2018-11-01T19:18:24.084Z,56.09
2018-11-01T19:19:24.047Z,56.27
2018-11-01T19:20:26.240Z,56.18
2018-11-01T19:21:24.049Z,56.27
2018-11-01T19:22:24.021Z,56.18
2018-11-01T19:23:23.995Z,56.18
2018-11-01T19:24:23.962Z,56.09
2018-11-01T19:25:24.024Z,56.18
2018-11-01T19:26:23.964Z,55.99
2018-11-01T19:27:24.160Z,55.89
2018-11-01T19:28:24.454Z,55.89
2018-11-01T19:29:23.933Z,55.89
2018-11-01T19:30:24.564Z,55.89
2018-11-01T19:31:25.483Z,55.99
2018-11-01T19:32:23.954Z,55.99
2018-11-01T19:33:24.971Z,55.99
2018-11-01T19:34:24.014Z,55.89
2018-11-01T19:35:23.868Z,55.89
2018-11-01T19:36:23.877Z,55.89
2018-11-01T19:37:23.848Z,55.99
2018-11-01T19:38:25.466Z,55.89
2018-11-01T19:39:23.830Z,55.89
2018-11-01T19:40:23.885Z,55.89
2018-11-01T19:41:23.843Z,56.18
2018-11-01T19:42:23.814Z,55.89
2018-11-01T19:43:23.790Z,55.89
2018-11-01T19:44:23.846Z,56.18
2018-11-01T19:45:23.871Z,55.89
2018-11-01T19:46:23.794Z,56.27
2018-11-01T19:47:23.798Z,55.89
2018-11-01T19:48:23.852Z,56.18
2018-11-01T19:49:23.757Z,55.89
2018-11-01T19:50:23.761Z,56.18
2018-11-01T19:51:23.759Z,55.99
2018-11-01T19:52:23.755Z,55.99
2018-11-01T19:53:23.862Z,56.09
2018-11-01T19:54:23.714Z,56.09
2018-11-01T19:55:23.706Z,55.89
2018-11-01T19:56:23.691Z,56.18
2018-11-01T19:57:23.766Z,56.09
2018-11-01T19:58:23.743Z,56.09
2018-11-01T19:59:25.584Z,56.09
2018-11-01T20:00:23.666Z,56.09
2018-11-01T20:01:23.744Z,56.09
2018-11-01T20:02:23.697Z,56.09
2018-11-01T20:03:23.665Z,55.89
2018-11-01T20:04:23.882Z,56.09
2018-11-01T20:05:23.685Z,55.99
2018-11-01T20:06:23.639Z,56.09
2018-11-01T20:09:00.509Z,55.99
2018-11-01T20:09:57.155Z,56.18
2018-11-01T20:11:49.319Z,55.89
2018-11-01T20:12:48.210Z,56.09
2018-11-01T20:14:49.723Z,55.99
2018-11-01T20:15:43.436Z,55.99
2018-11-01T20:17:36.742Z,56.18
2018-11-01T20:18:36.209Z,55.99
2018-11-01T20:20:30.819Z,55.89
2018-11-01T20:21:31.197Z,55.89
2018-11-01T20:23:24.667Z,56.18
2018-11-01T20:24:23.972Z,55.89
2018-11-01T20:26:16.949Z,56.18
2018-11-01T20:27:16.579Z,56.09
2018-11-01T20:29:09.729Z,56.09
2018-11-01T20:30:09.443Z,56.27
2018-11-01T20:32:03.175Z,56.18
2018-11-01T20:33:02.646Z,56.09
2018-11-01T20:34:56.676Z,56.18
2018-11-01T20:35:56.716Z,56.18
2018-11-01T20:37:51.755Z,56.09
2018-11-01T20:38:51.020Z,56.27
2018-11-01T20:39:50.908Z,56.18
2018-11-01T20:40:50.374Z,56.18
2018-11-01T20:41:50.361Z,56.18
2018-11-01T20:42:50.320Z,56.18
2018-11-01T20:43:50.344Z,56.18
2018-11-01T20:44:50.324Z,56.27
2018-11-01T20:45:50.335Z,56.18
2018-11-01T20:46:50.285Z,56.18
2018-11-01T20:47:50.277Z,56.09
2018-11-01T20:48:50.288Z,56.27
2018-11-01T20:49:50.265Z,56.18
2018-11-01T20:50:50.248Z,56.18
2018-11-01T20:51:50.241Z,56.27
2018-11-01T20:52:50.276Z,56.27
2018-11-01T20:53:50.229Z,56.18
2018-11-01T20:54:50.209Z,56.27
2018-11-01T20:55:50.202Z,56.27
2018-11-01T20:56:50.211Z,56.27
2018-11-01T20:57:50.317Z,56.09
2018-11-01T20:58:50.198Z,55.99
2018-11-01T20:59:50.179Z,55.99
2018-11-01T21:00:50.185Z,56.09
2018-11-01T21:01:50.219Z,55.99
2018-11-01T21:02:50.132Z,56.18
2018-11-01T21:03:50.125Z,56.37
2018-11-01T21:04:50.150Z,55.99
2018-11-01T21:05:50.197Z,56.18
2018-11-01T21:06:50.132Z,55.99
2018-11-01T21:07:50.099Z,56.09
2018-11-01T21:08:50.110Z,55.99
2018-11-01T21:09:50.125Z,56.37
2018-11-01T21:10:50.182Z,56.27
2018-11-01T21:11:50.334Z,56.18
2018-11-01T21:12:50.134Z,56.18
2018-11-01T21:13:50.095Z,56.27
2018-11-01T21:14:50.073Z,56.27
2018-11-01T21:15:50.039Z,56.27
2018-11-01T21:16:50.159Z,56.27
2018-11-01T21:19:59.904Z,56.09
2018-11-01T21:20:56.412Z,56.27
2018-11-01T21:23:47.106Z,56.18
2018-11-01T21:24:56.874Z,56.09
2018-11-01T21:26:41.804Z,56.27
2018-11-01T21:27:48.582Z,56.18
2018-11-01T21:29:35.602Z,56.18
2018-11-01T21:30:33.543Z,55.99
2018-11-01T21:32:28.764Z,55.99
2018-11-01T21:33:27.224Z,56.18
2018-11-01T21:35:20.984Z,56.18
2018-11-01T21:36:20.395Z,56.18
2018-11-01T21:39:00.483Z,55.89
2018-11-01T21:40:00.580Z,56.09
2018-11-01T21:41:54.633Z,55.99
2018-11-01T21:42:54.008Z,56.09
2018-11-01T21:44:50.019Z,55.99
2018-11-01T21:45:49.384Z,55.99
2018-11-01T21:46:49.239Z,55.89
2018-11-01T21:47:50.577Z,56.18
2018-11-01T21:48:49.214Z,55.89
2018-11-01T21:49:58.681Z,55.89
2018-11-01T21:52:08.047Z,55.89
2018-11-01T21:53:07.584Z,56.09
2018-11-01T21:55:00.977Z,56.09
2018-11-01T21:56:00.615Z,55.79
2018-11-01T21:57:53.599Z,56.09
2018-11-01T21:58:53.689Z,55.89
2018-11-01T22:00:46.243Z,56.09
2018-11-01T22:01:46.118Z,55.89
2018-11-01T22:03:39.208Z,55.99
2018-11-01T22:04:39.340Z,56.09
2018-11-01T22:06:32.276Z,56.18
2018-11-01T22:07:31.925Z,56.27
2018-11-01T22:09:25.018Z,56.27
2018-11-01T22:10:24.726Z,56.27
2018-11-01T22:12:17.735Z,56.30
2018-11-01T22:13:17.551Z,56.27
2018-11-01T22:15:10.862Z,56.37
2018-11-01T22:16:10.518Z,56.27
2018-11-01T22:18:04.350Z,55.89
2018-11-01T22:20:44.682Z,56.27
2018-11-01T22:21:43.753Z,56.18
2018-11-01T22:22:44.623Z,56.09
2018-11-01T22:23:43.630Z,56.18
2018-11-01T22:24:43.644Z,56.18
2018-11-01T22:25:43.914Z,55.99
2018-11-01T22:26:43.604Z,56.18
2018-11-01T22:27:43.589Z,56.18
2018-11-01T22:28:43.652Z,55.89
2018-11-01T22:29:43.570Z,56.18
2018-11-01T22:30:43.570Z,55.89
2018-11-01T22:31:43.575Z,55.99
2018-11-01T22:32:43.561Z,55.99
2018-11-01T22:33:43.535Z,55.89
2018-11-01T22:34:43.583Z,56.09
2018-11-01T22:35:43.758Z,55.99
2018-11-01T22:36:43.603Z,55.99
2018-11-01T22:41:06.220Z,56.09
2018-11-01T22:42:06.384Z,55.89
2018-11-01T22:43:59.246Z,56.09
2018-11-01T22:44:58.778Z,56.09
